Time;durP1;ratioP1;P1;durP2;ratioP2;P2;SDS_P1;SDS_P2;PMS_P1;PMS_P2;Temp;Humidity;BMP_temperature;BMP_pressure;BME280_temperature;BME280_humidity;BME280_pressure;Samples;Min_cycle;Max_cycle;Signal;HPM_P1;HPM_P2
2024/03/19 00:02:20;;;;;;;12.77;5.60;;;;;;;7.28;66.29;101168.25;4982398;28;20068;-84
2024/03/19 00:04:51;;;;;;;7.57;4.97;;;;;;;7.22;66.41;101171.66;4980834;28;20129;-86
2024/03/19 00:07:17;;;;;;;5.72;4.15;;;;;;;7.26;66.11;101175.16;5005335;28;20052;-86
2024/03/19 00:09:44;;;;;;;8.38;4.60;;;;;;;7.28;66.06;101168.25;5008225;28;20038;-84
2024/03/19 00:12:14;;;;;;;5.38;4.28;;;;;;;7.34;66.30;101167.44;5011249;28;20050;-85
2024/03/19 00:14:43;;;;;;;10.55;4.97;;;;;;;7.24;66.45;101172.53;5003169;28;20050;-87
2024/03/19 00:17:12;;;;;;;6.40;4.35;;;;;;;7.22;66.44;101170.78;5002467;28;20045;-84
2024/03/19 00:19:39;;;;;;;7.00;4.53;;;;;;;7.25;66.17;101169.09;5008416;28;20090;-84
2024/03/19 00:22:07;;;;;;;9.35;4.72;;;;;;;7.21;66.40;101172.50;5009123;28;20030;-84
2024/03/19 00:24:34;;;;;;;9.98;4.38;;;;;;;7.22;66.31;101173.38;5008588;28;20112;-82
2024/03/19 00:27:04;;;;;;;4.72;3.63;;;;;;;7.22;66.19;101163.84;5025925;28;20033;-83
2024/03/19 00:29:40;;;;;;;7.97;4.65;;;;;;;7.21;66.58;101158.59;5240538;23;20059;-86
2024/03/19 00:32:10;;;;;;;6.65;4.47;;;;;;;7.19;66.71;101161.19;4966277;28;20053;-86
2024/03/19 00:34:37;;;;;;;7.22;4.32;;;;;;;7.14;66.67;101165.47;4948424;28;20044;-86
2024/03/19 00:37:05;;;;;;;7.22;3.47;;;;;;;7.10;66.96;101163.69;4966762;28;20122;-87
2024/03/19 00:39:34;;;;;;;7.22;4.40;;;;;;;7.06;67.21;101164.50;4955501;28;20121;-86
2024/03/19 00:42:09;;;;;;;6.88;3.60;;;;;;;7.07;67.08;101161.03;4959063;28;20042;-87
2024/03/19 00:44:39;;;;;;;5.40;4.45;;;;;;;7.05;67.42;101161.03;4978771;28;20126;-87
2024/03/19 00:47:14;;;;;;;11.82;4.70;;;;;;;7.03;67.44;101167.94;4967277;28;20044;-86
2024/03/19 00:49:44;;;;;;;9.98;4.13;;;;;;;7.01;67.69;101163.56;4950110;28;20044;-86
2024/03/19 00:52:37;;;;;;;7.15;4.18;;;;;;;7.00;67.93;101159.19;4977577;22;20098;-85
2024/03/19 00:55:06;;;;;;;5.38;3.75;;;;;;;7.07;67.31;101163.66;5001605;28;20054;-86
2024/03/19 00:57:34;;;;;;;5.68;4.22;;;;;;;7.05;67.37;101157.53;4973102;28;20045;-90
2024/03/19 01:00:08;;;;;;;6.68;3.88;;;;;;;7.00;67.62;101151.38;5028261;28;20022;-84
2024/03/19 01:02:34;;;;;;;6.88;3.47;;;;;;;7.03;67.69;101154.06;4993326;28;20034;-82
2024/03/19 01:05:02;;;;;;;3.95;3.55;;;;;;;6.98;68.03;101150.50;5041327;23;20069;-83
2024/03/19 01:07:32;;;;;;;5.15;4.05;;;;;;;6.96;67.88;101147.84;5171349;23;20067;-86
2024/03/19 01:09:59;;;;;;;6.47;4.50;;;;;;;6.96;68.21;101153.06;4964800;28;20058;-88
2024/03/19 01:12:28;;;;;;;7.90;4.28;;;;;;;6.92;68.07;101152.16;4984753;28;20081;-86
2024/03/19 01:14:58;;;;;;;4.43;3.28;;;;;;;6.90;68.48;101145.19;4990087;28;20062;-87
2024/03/19 01:17:28;;;;;;;5.18;3.42;;;;;;;6.91;68.78;101139.09;4995033;28;20029;-87
2024/03/19 01:19:55;;;;;;;8.15;3.72;;;;;;;6.87;68.62;101135.63;4974065;28;20038;-87
2024/03/19 01:22:22;;;;;;;5.63;3.83;;;;;;;6.87;68.87;101139.94;4983610;28;20146;-87
2024/03/19 01:24:50;;;;;;;8.77;3.40;;;;;;;6.82;69.24;101133.78;4973675;28;20065;-87
2024/03/19 01:27:29;;;;;;;4.65;3.55;;;;;;;6.82;69.19;101137.28;4970493;28;20049;-87
2024/03/19 01:29:56;;;;;;;6.47;4.28;;;;;;;6.85;69.27;101139.91;4992940;28;20022;-87
2024/03/19 01:32:23;;;;;;;7.18;4.00;;;;;;;6.84;69.51;101143.34;4979192;28;20486;-88
2024/03/19 01:34:52;;;;;;;10.15;3.85;;;;;;;6.82;69.67;101138.97;4979492;28;20101;-88
2024/03/19 01:37:20;;;;;;;5.00;3.40;;;;;;;6.84;69.85;101130.34;4995061;28;20030;-88
2024/03/19 01:39:52;;;;;;;5.28;3.50;;;;;;;6.89;69.16;101131.28;4955220;28;20050;-87
2024/03/19 01:42:25;;;;;;;6.47;3.80;;;;;;;6.90;69.64;101137.38;4974467;28;20069;-88
2024/03/19 01:45:08;;;;;;;5.53;3.85;;;;;;;6.86;69.23;101148.63;4977599;28;20068;-84
2024/03/19 01:47:48;;;;;;;;;;;;;;;;;;;;;
2024/03/19 01:50:19;;;;;;;4.97;3.78;;;;;;;6.87;69.57;101146.03;4983823;28;20489;-87
2024/03/19 01:52:50;;;;;;;5.53;3.63;;;;;;;6.91;69.71;101147.81;4990173;28;20085;-86
2024/03/19 01:55:24;;;;;;;4.68;3.10;;;;;;;6.81;70.05;101138.13;5008254;28;20039;-86
2024/03/19 01:57:59;;;;;;;5.97;3.47;;;;;;;6.77;70.59;101146.75;5015023;28;20039;-88
2024/03/19 02:00:26;;;;;;;6.50;3.20;;;;;;;6.77;70.42;101137.19;4975615;28;20059;-88
2024/03/19 02:02:57;;;;;;;10.13;3.78;;;;;;;6.79;70.21;101142.41;4984766;28;20047;-88
2024/03/19 02:05:26;;;;;;;6.28;3.17;;;;;;;6.75;70.34;101148.44;4994826;28;20042;-88
2024/03/19 02:07:56;;;;;;;5.05;3.38;;;;;;;6.79;70.30;101155.44;4993752;28;20081;-87
2024/03/19 02:10:28;;;;;;;5.40;3.50;;;;;;;6.79;70.24;101152.81;4981343;28;20057;-88
2024/03/19 02:12:55;;;;;;;8.30;4.07;;;;;;;6.79;70.60;101155.44;4994670;28;20057;-87
2024/03/19 02:15:22;;;;;;;7.30;3.72;;;;;;;6.77;70.49;101150.19;5016235;28;20777;-87
2024/03/19 02:17:49;;;;;;;6.38;4.10;;;;;;;6.81;70.38;101151.13;5001264;28;20106;-88
2024/03/19 02:20:19;;;;;;;6.38;3.70;;;;;;;6.84;70.29;101155.50;4990140;28;20034;-88
2024/03/19 02:22:47;;;;;;;5.70;3.67;;;;;;;6.85;70.52;101145.13;4994945;28;20043;-87
2024/03/19 02:25:20;;;;;;;9.75;4.78;;;;;;;6.81;70.55;101145.94;4993371;28;20025;-87
2024/03/19 02:27:57;;;;;;;4.05;3.30;;;;;;;6.81;70.70;101145.06;4999297;28;20058;-87
2024/03/19 02:30:27;;;;;;;;;;;;;;;6.79;70.83;101137.22;4993474;28;20073;-88
2024/03/19 02:32:57;;;;;;;6.15;3.75;;;;;;;6.78;71.08;101131.16;4986961;28;19922;-87
2024/03/19 02:35:26;;;;;;;7.05;3.15;;;;;;;6.74;71.32;101136.25;4995308;28;20080;-87
2024/03/19 02:37:53;;;;;;;5.55;3.63;;;;;;;6.76;71.33;101137.19;5005225;28;20058;-87
2024/03/19 02:40:19;;;;;;;5.10;3.25;;;;;;;6.81;71.15;101142.47;4977897;28;20049;-87
2024/03/19 02:42:46;;;;;;;3.97;3.13;;;;;;;6.83;70.99;101136.44;4972416;28;20446;-86
2024/03/19 02:45:13;;;;;;;5.38;3.63;;;;;;;6.81;71.28;101132.91;4982653;28;20051;-86
2024/03/19 02:47:40;;;;;;;3.03;2.70;;;;;;;6.76;70.88;101132.84;4993531;28;20105;-87
2024/03/19 02:50:08;;;;;;;5.25;4.32;;;;;;;6.68;71.19;101123.19;4992536;28;20057;-88
2024/03/19 02:52:35;;;;;;;4.47;3.03;;;;;;;6.62;71.82;101123.97;4980994;28;20506;-87
2024/03/19 02:55:09;;;;;;;4.88;3.38;;;;;;;6.60;72.02;101139.56;4990808;28;20043;-87
2024/03/19 02:57:39;;;;;;;4.40;3.65;;;;;;;6.58;72.31;101127.38;4989042;28;20051;-87
2024/03/19 03:00:09;;;;;;;5.55;3.67;;;;;;;6.58;72.32;101133.47;4995854;28;20047;-87
2024/03/19 03:02:39;;;;;;;5.00;3.95;;;;;;;6.52;72.55;101127.28;4996174;28;20055;-88
2024/03/19 03:05:06;;;;;;;5.60;3.17;;;;;;;6.52;72.75;101130.75;4974544;28;20226;-87
2024/03/19 03:07:33;;;;;;;6.78;3.60;;;;;;;6.52;72.76;101135.97;4970975;28;20058;-87
2024/03/19 03:10:04;;;;;;;6.60;3.80;;;;;;;6.48;73.02;101134.19;4998809;28;20042;-87
2024/03/19 03:12:40;;;;;;;4.45;3.17;;;;;;;6.47;73.25;101137.63;4972084;28;20055;-87
2024/03/19 03:15:16;;;;;;;5.97;3.85;;;;;;;6.46;73.26;101135.84;4995087;28;20043;-87
2024/03/19 03:17:46;;;;;;;6.32;3.50;;;;;;;6.40;73.87;101140.97;4989685;28;20708;-87
2024/03/19 03:20:17;;;;;;;4.43;3.47;;;;;;;6.36;74.13;101140.06;5008172;28;20077;-86
2024/03/19 03:22:49;;;;;;;7.45;4.35;;;;;;;6.36;74.05;101142.66;4985299;28;20034;-85
2024/03/19 03:25:28;;;;;;;8.80;3.85;;;;;;;6.33;74.30;101137.38;5001632;28;20042;-86
2024/03/19 03:28:00;;;;;;;6.93;3.75;;;;;;;6.35;74.44;101134.81;4994760;28;20051;-87
2024/03/19 03:30:28;;;;;;;5.22;3.45;;;;;;;6.32;74.53;101132.16;4981801;28;20046;-86
2024/03/19 03:33:00;;;;;;;4.10;3.10;;;;;;;6.32;74.62;101139.97;4988842;28;20039;-87
2024/03/19 03:35:32;;;;;;;7.60;4.53;;;;;;;6.33;74.76;101132.19;4997203;28;20073;-88
2024/03/19 03:38:04;;;;;;;4.60;3.17;;;;;;;6.35;74.61;101135.69;4977640;28;20047;-87
2024/03/19 03:40:36;;;;;;;4.40;3.17;;;;;;;6.36;74.35;101133.97;4995305;28;20046;-86
2024/03/19 03:43:08;;;;;;;4.93;3.30;;;;;;;6.31;74.87;101128.72;5010221;28;20042;-89
2024/03/19 03:45:39;;;;;;;3.78;3.35;;;;;;;6.28;75.17;101128.63;5000240;28;20026;-86
2024/03/19 03:48:07;;;;;;;3.63;3.00;;;;;;;6.20;75.01;101133.72;4997641;28;20050;-87
2024/03/19 03:50:36;;;;;;;6.43;3.35;;;;;;;6.24;75.15;101132.03;5006353;28;20119;-86
2024/03/19 03:53:06;;;;;;;6.18;3.78;;;;;;;6.22;75.54;101141.53;4976816;28;20043;-87
2024/03/19 03:55:33;;;;;;;4.80;3.85;;;;;;;6.22;75.57;101134.63;4995439;28;20058;-87
2024/03/19 03:58:06;;;;;;;3.47;3.17;;;;;;;6.22;75.83;101134.63;4995795;28;20125;-86
2024/03/19 04:00:34;;;;;;;4.68;3.22;;;;;;;6.24;75.50;101137.25;4991866;28;20094;-86
2024/03/19 04:03:04;;;;;;;3.38;2.95;;;;;;;6.22;75.56;101124.22;5014037;28;20069;-86
2024/03/19 04:05:31;;;;;;;6.68;3.08;;;;;;;6.17;75.69;101118.06;4978756;28;20036;-86
2024/03/19 04:08:01;;;;;;;3.42;3.10;;;;;;;6.16;76.16;101112.84;4996433;28;20047;-87
2024/03/19 04:10:43;;;;;;;6.25;3.63;;;;;;;6.09;75.89;101115.34;4972442;28;20066;-86
2024/03/19 04:13:12;;;;;;;6.30;3.45;;;;;;;6.05;76.45;101121.34;4990862;28;20070;-86
2024/03/19 04:15:39;;;;;;;4.00;3.50;;;;;;;6.00;76.67;101116.88;5006208;28;20027;-86
2024/03/19 04:18:06;;;;;;;5.55;3.08;;;;;;;5.93;76.99;101124.56;4995928;28;20046;-86
2024/03/19 04:20:38;;;;;;;5.22;3.47;;;;;;;5.89;77.55;101121.88;4980567;28;20055;-86
2024/03/19 04:23:05;;;;;;;6.18;3.10;;;;;;;5.83;77.96;101116.56;4998325;28;20047;-88
2024/03/19 04:28:14;;;;;;;5.32;3.53;;;;;;;5.72;78.63;101121.56;4988698;28;20046;-87
2024/03/19 04:30:42;;;;;;;4.00;2.80;;;;;;;5.67;79.06;101128.41;4999299;28;20247;-88
2024/03/19 04:33:15;;;;;;;5.13;3.35;;;;;;;5.60;79.09;101125.69;4971952;28;20042;-87
2024/03/19 04:35:45;;;;;;;4.65;3.25;;;;;;;5.58;79.64;101127.38;4988039;28;20113;-87
2024/03/19 04:38:27;;;;;;;3.72;3.10;;;;;;;5.55;79.79;101121.25;4998119;28;20039;-87
2024/03/19 04:41:04;;;;;;;5.25;3.20;;;;;;;5.53;79.55;101135.91;4985225;28;20042;-88
2024/03/19 04:43:32;;;;;;;5.38;3.40;;;;;;;5.46;80.15;101130.63;5004202;28;20081;-87
2024/03/19 04:45:59;;;;;;;4.28;2.65;;;;;;;5.42;80.21;101131.41;4992582;28;20043;-88
2024/03/19 04:48:47;;;;;;;7.18;4.63;;;;;;;5.41;80.62;101127.06;5008799;28;20133;-88
2024/03/19 04:51:33;;;;;;;6.57;3.53;;;;;;;5.34;81.17;101130.38;4992547;28;20283;-86
2024/03/19 04:54:12;;;;;;;6.60;4.40;;;;;;;5.33;81.04;101126.00;4999195;28;20056;-87
2024/03/19 04:56:41;;;;;;;4.50;3.15;;;;;;;5.27;81.55;101123.31;4998551;28;20062;-87
2024/03/19 05:05:05;;;;;;;4.55;3.13;;;;;;;5.13;82.52;101128.22;4962969;28;20022;-85
2024/03/19 05:07:32;;;;;;;4.15;2.65;;;;;;;5.05;82.77;101132.38;4979915;28;20062;-87
2024/03/19 05:13:07;;;;;;;8.95;3.33;;;;;;;4.93;83.70;101135.59;5007203;28;20054;-86
2024/03/19 05:15:37;;;;;;;5.45;3.78;;;;;;;4.90;84.02;101135.50;4970073;28;20057;-87
2024/03/19 05:18:05;;;;;;;5.97;3.03;;;;;;;4.87;84.49;101135.44;4966176;28;20102;-87
2024/03/19 05:20:46;;;;;;;4.13;3.35;;;;;;;4.82;84.77;101137.06;4978206;28;20301;-86
2024/03/19 05:26:16;;;;;;;8.10;3.45;;;;;;;4.75;85.74;101142.09;4979516;28;20035;-87
2024/03/19 05:31:45;;;;;;;3.72;3.33;;;;;;;4.74;85.55;101152.44;4976744;28;20077;-87
2024/03/19 05:37:13;;;;;;;4.60;3.97;;;;;;;4.68;86.19;101153.19;4990284;28;20043;-87
2024/03/19 05:39:46;;;;;;;5.30;3.78;;;;;;;4.69;86.57;101151.47;4985900;28;20058;-87
2024/03/19 05:42:19;;;;;;;8.77;4.20;;;;;;;4.70;86.42;101155.81;4973651;28;20031;-88
2024/03/19 05:45:19;;;;;;;3.97;3.53;;;;;;;4.70;86.57;101158.41;4973560;28;20044;-86
2024/03/19 05:47:47;;;;;;;11.07;3.72;;;;;;;4.70;86.53;101159.25;4976159;28;20077;-88
2024/03/19 05:50:17;;;;;;;6.32;4.10;;;;;;;4.70;86.40;101159.25;4976735;28;20074;-88
2024/03/19 05:52:46;;;;;;;4.72;3.58;;;;;;;4.74;86.07;101163.69;4976374;28;20123;-87
2024/03/19 05:55:13;;;;;;;7.75;3.65;;;;;;;4.74;86.03;101168.00;4991876;28;20083;-89
2024/03/19 05:57:58;;;;;;;7.43;4.57;;;;;;;4.76;86.31;101164.59;4979904;28;20040;-88
2024/03/19 06:00:37;;;;;;;10.57;4.45;;;;;;;4.84;85.95;101166.47;4971909;28;20074;-87
2024/03/19 06:03:04;;;;;;;12.18;4.57;;;;;;;4.78;86.14;101167.22;4967176;28;20040;-88
2024/03/19 06:05:55;;;;;;;4.90;4.43;;;;;;;4.83;86.33;101172.53;4961522;28;20030;-88
2024/03/19 06:08:23;;;;;;;9.90;4.20;;;;;;;4.82;86.05;101168.19;4934201;29;20502;-87
2024/03/19 06:10:55;;;;;;;6.78;3.72;;;;;;;4.80;86.16;101181.13;4964117;28;20139;-89
2024/03/19 06:13:24;;;;;;;7.43;4.50;;;;;;;4.86;86.13;101178.66;4961427;28;20073;-85
2024/03/19 06:16:00;;;;;;;7.07;3.53;;;;;;;4.95;85.80;101176.28;4958432;28;20046;-87
2024/03/19 06:18:37;;;;;;;7.68;4.20;;;;;;;4.98;85.01;101178.06;4973883;28;20103;-86
2024/03/19 06:23:59;;;;;;;6.20;3.95;;;;;;;4.99;85.21;101182.41;4972887;28;20089;-87
2024/03/19 06:26:29;;;;;;;5.40;3.77;;;;;;;5.47;82.83;101181.72;4958575;29;20040;-87
2024/03/19 06:28:58;;;;;;;6.28;4.00;;;;;;;5.62;80.50;101188.06;4972066;28;20039;-88
2024/03/19 06:31:27;;;;;;;6.43;3.80;;;;;;;5.68;80.64;101182.09;4962500;28;20087;-87
2024/03/19 06:34:04;;;;;;;9.93;4.63;;;;;;;6.12;78.06;101195.09;4956768;28;20079;-85
2024/03/19 06:36:31;;;;;;;3.78;3.10;;;;;;;6.29;77.52;101191.06;4973600;28;20046;-88
2024/03/19 06:39:04;;;;;;;6.13;4.05;;;;;;;6.56;75.55;101199.31;4998356;28;20031;-86
2024/03/19 06:41:42;;;;;;;8.80;4.20;;;;;;;6.43;75.96;101196.50;4959741;28;20053;-85
2024/03/19 06:44:15;;;;;;;6.65;3.95;;;;;;;6.81;74.72;101200.56;4942281;29;20063;-87
2024/03/19 06:46:45;;;;;;;6.30;3.45;;;;;;;7.29;72.49;101189.09;4956151;28;20134;-86
2024/03/19 06:49:17;;;;;;;5.55;3.75;;;;;;;7.39;72.13;101199.63;4971461;28;20062;-86
2024/03/19 06:51:45;;;;;;;4.63;3.92;;;;;;;7.49;70.55;101196.28;4964644;28;20052;-88
2024/03/19 06:54:17;;;;;;;5.40;3.55;;;;;;;7.54;70.57;101198.97;4961349;29;20039;-87
2024/03/19 06:56:48;;;;;;;12.98;4.60;;;;;;;7.78;69.59;101201.88;4972757;28;20054;-87
2024/03/19 06:59:19;;;;;;;4.53;3.42;;;;;;;7.71;69.14;101204.38;4940869;29;20071;-87
2024/03/19 07:01:50;;;;;;;6.97;5.03;;;;;;;8.08;68.23;101210.88;4966748;28;20059;-88
2024/03/19 07:04:21;;;;;;;7.03;4.35;;;;;;;7.74;68.66;101214.84;4971484;28;20039;-87
2024/03/19 07:06:53;;;;;;;5.43;4.03;;;;;;;8.04;68.71;101224.72;4966355;28;20044;-85
2024/03/19 07:09:24;;;;;;;3.88;3.45;;;;;;;8.33;67.67;101225.88;4965979;28;20680;-85
2024/03/19 07:11:55;;;;;;;4.13;3.72;;;;;;;8.47;66.90;101226.06;4978055;28;20042;-88
2024/03/19 07:14:22;;;;;;;8.05;4.68;;;;;;;9.08;64.93;101228.25;4976698;28;20043;-86
2024/03/19 07:16:51;;;;;;;6.40;4.65;;;;;;;9.24;64.49;101224.00;4962604;28;20057;-87
2024/03/19 07:19:18;;;;;;;4.95;4.13;;;;;;;9.51;62.85;101235.47;4985264;28;20065;-85
2024/03/19 07:21:47;;;;;;;5.47;4.47;;;;;;;9.97;62.84;101238.25;4971851;28;20057;-86
2024/03/19 07:24:22;;;;;;;5.68;4.18;;;;;;;10.18;61.36;101236.56;4968251;28;20078;-87
2024/03/19 07:26:51;;;;;;;8.27;5.18;;;;;;;9.98;61.21;101233.91;4968745;28;20044;-87
2024/03/19 07:29:20;;;;;;;5.90;3.90;;;;;;;10.45;59.72;101243.59;4965428;28;20051;-86
2024/03/19 07:31:47;;;;;;;5.72;4.40;;;;;;;10.51;60.05;101241.00;4960348;28;20061;-87
2024/03/19 07:34:16;;;;;;;6.95;4.82;;;;;;;9.71;62.02;101248.63;4982467;28;20050;-87
2024/03/19 07:36:46;;;;;;;9.27;4.82;;;;;;;9.04;63.58;101250.00;4953626;28;20047;-86
2024/03/19 07:39:16;;;;;;;8.80;4.97;;;;;;;8.84;64.45;101242.91;4975379;28;20134;-89
2024/03/19 07:41:43;;;;;;;9.18;5.10;;;;;;;8.39;66.07;101242.47;4986864;28;20047;-88
2024/03/19 07:44:10;;;;;;;8.45;4.68;;;;;;;8.20;67.42;101243.13;4981804;28;20043;-86
2024/03/19 07:46:42;;;;;;;6.78;4.95;;;;;;;8.21;68.21;101247.50;4980132;28;20063;-88
2024/03/19 07:49:10;;;;;;;7.72;5.22;;;;;;;8.52;67.29;101246.09;4966361;28;20063;-87
2024/03/19 07:51:39;;;;;;;8.55;5.15;;;;;;;9.67;64.89;101250.34;4966273;28;20066;-88
2024/03/19 07:54:07;;;;;;;10.38;5.93;;;;;;;10.63;61.02;101248.00;4964263;28;20077;-86
2024/03/19 07:56:33;;;;;;;6.10;5.50;;;;;;;10.67;59.59;101238.41;4985433;28;20047;-87
2024/03/19 07:59:00;;;;;;;13.40;5.85;;;;;;;10.13;61.16;101243.53;4965131;28;20262;-86
2024/03/19 08:01:28;;;;;;;7.38;5.70;;;;;;;10.42;61.08;101251.47;4981902;28;20105;-87
2024/03/19 08:04:00;;;;;;;11.45;5.30;;;;;;;11.00;59.84;101247.09;4962139;28;20047;-88
2024/03/19 08:06:27;;;;;;;8.35;5.43;;;;;;;11.98;57.86;101255.56;4969763;28;20047;-86
2024/03/19 08:08:54;;;;;;;8.90;5.70;;;;;;;13.04;55.31;101240.78;4972093;28;20058;-87
2024/03/19 08:11:23;;;;;;;10.45;6.28;;;;;;;12.82;54.72;101243.59;4967900;28;20082;-86
2024/03/19 08:13:57;;;;;;;12.48;6.32;;;;;;;11.82;57.39;101239.00;4986237;28;20055;-86
2024/03/19 08:16:26;;;;;;;13.18;7.10;;;;;;;10.88;59.97;101237.50;4980565;28;20058;-85
2024/03/19 08:18:59;;;;;;;13.65;7.70;;;;;;;10.21;62.72;101249.66;4974488;28;20043;-88
2024/03/19 08:21:29;;;;;;;10.57;7.15;;;;;;;9.91;64.74;101254.81;4966794;28;20177;-87
2024/03/19 08:23:57;;;;;;;15.48;9.20;;;;;;;10.07;64.77;101241.78;4959556;28;20046;-87
2024/03/19 08:26:29;;;;;;;18.83;8.13;;;;;;;10.12;65.20;101239.16;4963875;28;20047;-88
2024/03/19 08:28:56;;;;;;;14.13;8.15;;;;;;;9.99;66.02;101246.13;4971534;28;20466;-89
2024/03/19 08:31:23;;;;;;;11.55;7.45;;;;;;;10.18;65.63;101249.63;4959940;28;20122;-87
2024/03/19 08:33:50;;;;;;;13.05;8.48;;;;;;;10.11;66.36;101238.28;4967784;28;20054;-88
2024/03/19 08:36:17;;;;;;;13.10;7.45;;;;;;;10.04;66.83;101247.00;4969415;28;20126;-87
2024/03/19 08:38:44;;;;;;;16.52;10.38;;;;;;;9.84;68.55;101246.94;4948926;28;20050;-87
2024/03/19 08:41:18;;;;;;;10.35;7.65;;;;;;;9.84;68.64;101252.16;4970250;28;20051;-85
2024/03/19 08:43:50;;;;;;;11.95;8.48;;;;;;;9.84;69.64;101250.44;4959201;28;20055;-86
2024/03/19 08:46:19;;;;;;;15.90;8.95;;;;;;;9.98;69.98;101255.69;4961379;28;20047;-86
2024/03/19 08:48:47;;;;;;;14.40;9.07;;;;;;;10.03;69.31;101256.56;4973626;28;20143;-86
2024/03/19 08:51:16;;;;;;;15.90;9.20;;;;;;;10.22;68.75;101257.50;4972161;28;20082;-86
2024/03/19 08:53:43;;;;;;;14.43;8.68;;;;;;;10.17;69.11;101264.47;4977380;28;22008;-86
2024/03/19 08:56:10;;;;;;;17.15;8.35;;;;;;;10.29;69.09;101270.63;4975642;28;20098;-88
2024/03/19 08:58:38;;;;;;;16.88;9.13;;;;;;;10.48;69.11;101274.16;4958468;28;20061;-86
2024/03/19 09:01:05;;;;;;;15.35;8.75;;;;;;;10.84;68.11;101286.41;4972700;28;20045;-87
2024/03/19 09:03:34;;;;;;;10.48;7.20;;;;;;;11.39;66.49;101275.00;4966691;28;20058;-87
2024/03/19 09:06:01;;;;;;;16.38;8.75;;;;;;;12.01;64.44;101276.56;4962119;28;20108;-87
2024/03/19 09:08:28;;;;;;;14.90;9.43;;;;;;;13.15;61.88;101278.34;4951877;28;20399;-89
2024/03/19 09:10:55;;;;;;;15.38;9.60;;;;;;;13.22;61.20;101282.66;4966138;28;20043;-89
2024/03/19 09:13:25;;;;;;;13.00;9.73;;;;;;;13.23;60.46;101275.63;4980304;28;20052;-88
2024/03/19 09:16:00;;;;;;;15.95;9.98;;;;;;;13.25;60.95;101263.34;4950374;28;20050;-88
2024/03/19 09:18:28;;;;;;;14.65;10.32;;;;;;;13.53;60.69;101266.59;4987528;28;20110;-87
2024/03/19 09:20:54;;;;;;;15.48;9.23;;;;;;;14.19;58.92;101259.59;4954382;28;20047;-88
2024/03/19 09:23:24;;;;;;;15.75;9.80;;;;;;;13.94;58.75;101263.50;4959186;28;20046;-87
2024/03/19 09:25:53;;;;;;;17.80;10.43;;;;;;;14.50;58.24;101259.16;4952023;28;20110;-87
2024/03/19 09:28:20;;;;;;;18.23;10.60;;;;;;;14.59;58.31;101260.78;4970732;28;20051;-88
2024/03/19 09:30:48;;;;;;;18.88;10.60;;;;;;;13.83;60.19;101263.59;4962117;28;20118;-87
2024/03/19 09:33:15;;;;;;;22.33;10.80;;;;;;;13.87;60.15;101268.81;4967573;28;20109;-88
2024/03/19 09:35:47;;;;;;;18.02;10.45;;;;;;;13.70;61.38;101270.78;4964358;28;20046;-85
2024/03/19 09:38:15;;;;;;;16.60;10.73;;;;;;;13.66;61.96;101271.72;4958034;28;20560;-86
2024/03/19 09:40:53;;;;;;;19.63;12.43;;;;;;;13.63;62.45;101277.00;4961732;28;20050;-88
2024/03/19 09:43:24;;;;;;;25.70;12.77;;;;;;;13.73;62.69;101274.25;4970406;28;20049;-88
2024/03/19 09:45:52;;;;;;;20.45;12.80;;;;;;;13.49;63.98;101278.06;4951240;28;20058;-88
2024/03/19 09:48:20;;;;;;;20.83;12.88;;;;;;;13.35;65.14;101277.28;4991088;28;20348;-89
2024/03/19 09:50:48;;;;;;;26.83;15.45;;;;;;;13.26;65.81;101277.38;4961593;28;20141;-83
2024/03/19 09:53:24;;;;;;;22.30;13.82;;;;;;;13.36;66.20;101276.38;4968721;28;20582;-84
2024/03/19 09:55:53;;;;;;;23.88;13.90;;;;;;;13.81;64.83;101270.66;4959848;28;20050;-82
2024/03/19 09:58:25;;;;;;;24.98;14.30;;;;;;;14.32;64.07;101265.56;4942299;28;20055;-84
2024/03/19 10:00:58;;;;;;;25.58;15.10;;;;;;;15.30;61.16;101263.97;4960269;28;20562;-83
2024/03/19 10:03:25;;;;;;;24.50;15.17;;;;;;;15.56;59.68;101260.84;4961355;28;20047;-84
2024/03/19 10:05:54;;;;;;;23.60;14.85;;;;;;;15.92;58.65;101253.09;4962924;28;20634;-82
2024/03/19 10:08:20;;;;;;;19.63;13.02;;;;;;;16.75;57.09;101260.00;4962832;28;20046;-82
2024/03/19 10:10:50;;;;;;;24.02;14.27;;;;;;;16.98;56.09;101260.28;4975727;28;20078;-83
2024/03/19 10:13:16;;;;;;;23.42;14.38;;;;;;;17.90;52.70;101250.72;4980118;28;20053;-83
2024/03/19 10:15:43;;;;;;;22.48;14.70;;;;;;;18.16;52.58;101251.69;4968287;28;20084;-83
2024/03/19 10:18:11;;;;;;;29.55;15.45;;;;;;;19.01;50.69;101248.97;4964119;28;20042;-83
2024/03/19 10:20:39;;;;;;;23.77;14.55;;;;;;;19.12;50.15;101241.50;4977225;28;20035;-85
2024/03/19 10:23:07;;;;;;;24.10;14.48;;;;;;;19.20;49.91;101245.69;4961790;28;20049;-82
2024/03/19 10:25:38;;;;;;;25.52;15.80;;;;;;;19.31;48.97;101243.50;4956297;28;20051;-83
2024/03/19 10:28:06;;;;;;;21.05;14.00;;;;;;;18.72;50.89;101236.66;4945216;28;20365;-83
2024/03/19 10:30:33;;;;;;;23.90;14.45;;;;;;;18.90;49.99;101246.69;4964420;28;20047;-83
2024/03/19 10:33:02;;;;;;;22.83;13.95;;;;;;;19.86;47.88;101237.94;4977187;28;20038;-84
2024/03/19 10:35:29;;;;;;;19.05;14.23;;;;;;;19.97;48.22;101238.41;4953382;28;20050;-84
2024/03/19 10:37:56;;;;;;;23.85;15.05;;;;;;;19.54;48.90;101233.81;4956926;28;20050;-83
2024/03/19 10:40:23;;;;;;;34.05;15.63;;;;;;;19.92;47.75;101237.72;4953318;28;20233;-83
2024/03/19 10:42:51;;;;;;;23.60;14.77;;;;;;;19.80;47.90;101240.81;4960368;28;20051;-85
2024/03/19 10:45:28;;;;;;;21.85;14.93;;;;;;;19.73;47.55;101245.47;4960638;28;20117;-86
2024/03/19 10:47:56;;;;;;;20.83;15.40;;;;;;;19.57;48.84;101239.91;4953281;28;20406;-83
2024/03/19 10:50:24;;;;;;;23.35;13.80;;;;;;;20.45;47.41;101239.13;4956749;28;20065;-83
2024/03/19 10:53:05;;;;;;;27.52;15.45;;;;;;;20.77;45.21;101234.31;4939153;28;20051;-83
2024/03/19 10:55:34;;;;;;;25.75;14.90;;;;;;;20.69;46.09;101239.06;4953365;28;20448;-83
2024/03/19 10:58:02;;;;;;;22.90;14.98;;;;;;;20.61;45.80;101233.19;4946309;28;20224;-81
2024/03/19 11:00:30;;;;;;;24.23;15.25;;;;;;;20.91;45.26;101231.06;4945152;28;20049;-82
2024/03/19 11:03:02;;;;;;;28.30;15.55;;;;;;;21.04;44.41;101231.41;4954982;28;20918;-83
2024/03/19 11:05:37;;;;;;;19.60;14.75;;;;;;;20.61;45.83;101231.41;4957178;28;20055;-81
2024/03/19 11:08:05;;;;;;;21.83;14.88;;;;;;;20.65;44.99;101233.00;4949069;28;20049;-84
2024/03/19 11:10:39;;;;;;;21.83;14.95;;;;;;;21.07;44.85;101230.41;4963246;28;20057;-83
2024/03/19 11:13:25;;;;;;;19.77;14.25;;;;;;;21.04;44.81;101223.44;4958498;28;20133;-83
2024/03/19 11:15:52;;;;;;;20.85;14.45;;;;;;;20.14;45.75;101228.88;4977359;28;20060;-84
2024/03/19 11:18:22;;;;;;;22.67;14.88;;;;;;;20.19;45.54;101223.41;4967229;28;20094;-82
2024/03/19 11:20:53;;;;;;;23.10;15.40;;;;;;;20.13;46.06;101219.19;4961563;28;20142;-83
2024/03/19 11:23:25;;;;;;;22.98;15.95;;;;;;;19.96;46.58;101225.19;4932402;28;20503;-82
2024/03/19 11:25:59;;;;;;;23.35;14.65;;;;;;;19.64;47.10;101222.78;4979128;28;20502;-84
2024/03/19 11:28:31;;;;;;;22.63;14.45;;;;;;;20.31;46.14;101230.88;4953618;28;20049;-83
2024/03/19 11:31:02;;;;;;;23.70;15.35;;;;;;;20.03;45.91;101217.84;4948014;28;20078;-82
2024/03/19 11:33:33;;;;;;;21.15;14.43;;;;;;;20.17;46.38;101216.34;4945315;28;20406;-82
2024/03/19 11:36:00;;;;;;;25.23;14.85;;;;;;;20.16;46.15;101216.41;4962503;28;20050;-83
2024/03/19 11:38:29;;;;;;;28.38;16.10;;;;;;;20.17;46.51;101212.84;4948066;28;20043;-82
2024/03/19 11:40:56;;;;;;;23.17;14.23;;;;;;;20.27;45.80;101208.88;4960458;28;20047;-84
2024/03/19 11:43:25;;;;;;;24.98;13.82;;;;;;;21.23;44.52;101206.63;4954179;28;20120;-81
2024/03/19 11:45:53;;;;;;;28.80;15.77;;;;;;;20.17;46.10;101207.50;4963086;28;20460;-85
2024/03/19 11:48:22;;;;;;;25.55;15.68;;;;;;;19.06;48.54;101198.38;4983848;28;20047;-82
2024/03/19 11:50:56;;;;;;;22.40;14.18;;;;;;;19.18;48.42;101203.28;4963485;28;20403;-82
2024/03/19 11:53:27;;;;;;;19.17;13.75;;;;;;;18.77;49.42;101197.59;4969304;28;20140;-81
2024/03/19 11:55:56;;;;;;;19.27;14.30;;;;;;;19.05;49.26;101196.69;4965401;28;20577;-81
2024/03/19 11:58:27;;;;;;;21.50;15.07;;;;;;;18.65;49.58;101201.53;4965843;28;20046;-83
2024/03/19 12:00:55;;;;;;;23.95;15.50;;;;;;;18.41;50.14;101204.09;4963516;28;20064;-85
2024/03/19 12:03:25;;;;;;;26.05;15.93;;;;;;;18.30;50.63;101204.47;4954309;28;20055;-83
2024/03/19 12:05:57;;;;;;;23.55;15.32;;;;;;;18.05;51.12;101204.34;4961236;28;20359;-84